createdAt,value
2022-12-23T00:00:58.207Z,99158.06
2022-12-23T00:03:26.969Z,99157.25
2022-12-23T00:05:54.811Z,99158.88
2022-12-23T00:08:23.471Z,99154.59
2022-12-23T00:10:54.107Z,99159.25
2022-12-23T00:13:39.540Z,99151.53
2022-12-23T00:16:09.530Z,99146.44
2022-12-23T00:18:37.690Z,99157.84
2022-12-23T00:21:09.202Z,99154.38
2022-12-23T00:23:39.203Z,99151.72
2022-12-23T00:26:13.797Z,99152.75
2022-12-23T00:28:41.478Z,99149.91
2022-12-23T00:31:10.256Z,99140.97
2022-12-23T00:33:39.671Z,99151.53
2022-12-23T00:36:13.264Z,99158.44
2022-12-23T00:38:58.812Z,99153.59
2022-12-23T00:41:45.515Z,99149.13
2022-12-23T00:44:13.468Z,99148.91
2022-12-23T00:46:41.275Z,99147.91
2022-12-23T00:49:40.951Z,99150.56
2022-12-23T00:52:10.511Z,99148.91
2022-12-23T00:54:38.328Z,99150.75
2022-12-23T00:57:07.900Z,99145.66
2022-12-23T00:59:35.613Z,99151.56
2022-12-23T01:02:20.941Z,99158.69
2022-12-23T01:05:06.286Z,99160.88
2022-12-23T01:07:34.028Z,99164.97
2022-12-23T01:10:01.675Z,99162.16
2022-12-23T01:12:30.753Z,99162.16
2022-12-23T01:14:58.487Z,99170.88
2022-12-23T01:17:26.217Z,99165.78
2022-12-23T01:19:53.891Z,99172.50
2022-12-23T01:22:21.569Z,99175.97
2022-12-23T01:24:49.302Z,99152.16
2022-12-23T01:27:17.069Z,99157.44
2022-12-23T01:29:46.705Z,99157.25
2022-12-23T01:32:15.236Z,99151.97
2022-12-23T01:34:43.106Z,99161.53
2022-12-23T01:37:10.767Z,99156.44
2022-12-23T01:39:38.463Z,99171.31
2022-12-23T01:42:28.406Z,99180.03
2022-12-23T01:45:00.475Z,99173.75
2022-12-23T01:47:33.994Z,99174.75
2022-12-23T01:50:07.258Z,99182.69
2022-12-23T01:52:39.818Z,99175.19
2022-12-23T01:55:08.544Z,99174.97
2022-12-23T01:57:39.831Z,99177.63
2022-12-23T02:00:29.441Z,99181.09
2022-12-23T02:03:14.709Z,99184.53
2022-12-23T02:05:45.968Z,99189.03
2022-12-23T02:08:33.192Z,99184.16
2022-12-23T02:11:29.606Z,99188.81
2022-12-23T02:14:28.585Z,99190.47
2022-12-23T02:17:07.066Z,99189.44
2022-12-23T02:19:54.380Z,99192.91
2022-12-23T02:22:46.428Z,99195.56
2022-12-23T02:25:33.451Z,99197.38
2022-12-23T02:28:21.207Z,99192.91
2022-12-23T02:30:57.676Z,99193.94
2022-12-23T02:33:44.840Z,99198.22
2022-12-23T02:36:24.479Z,99201.66
2022-12-23T02:39:00.517Z,99202.50
2022-12-23T02:41:36.059Z,99206.13
2022-12-23T02:44:11.585Z,99200.66
2022-12-23T02:46:47.157Z,99204.91
2022-12-23T02:49:21.904Z,99210.00
2022-12-23T02:51:54.701Z,99206.53
2022-12-23T02:54:27.925Z,99206.53
2022-12-23T02:56:57.652Z,99210.19
2022-12-23T02:59:27.895Z,99209.38
2022-12-23T03:01:58.330Z,99217.13
2022-12-23T03:04:26.191Z,99211.03
2022-12-23T03:06:56.143Z,99210.81
2022-12-23T03:09:31.992Z,99219.56
2022-12-23T03:12:06.077Z,99224.03
2022-12-23T03:14:55.507Z,99223.84
2022-12-23T03:17:36.995Z,99229.34
2022-12-23T03:20:13.301Z,99225.88
2022-12-23T03:22:50.964Z,99230.34
2022-12-23T03:25:25.287Z,99232.59
2022-12-23T03:27:59.857Z,99231.75
2022-12-23T03:30:28.823Z,99235.03
2022-12-23T03:33:02.717Z,99246.03
2022-12-23T03:35:36.023Z,99244.38
2022-12-23T03:38:04.670Z,99246.22
2022-12-23T03:40:38.121Z,99244.38
2022-12-23T03:43:12.356Z,99244.56
2022-12-23T03:45:44.283Z,99255.38
2022-12-23T03:48:21.075Z,99252.28
2022-12-23T03:50:53.788Z,99251.06
2022-12-23T03:53:26.885Z,99259.00
2022-12-23T03:55:59.887Z,99252.06
2022-12-23T03:58:36.347Z,99265.28
2022-12-23T04:01:06.911Z,99265.47
2022-12-23T04:03:41.292Z,99265.28
2022-12-23T04:06:15.533Z,99270.56
2022-12-23T04:08:44.992Z,99275.69
2022-12-23T04:11:13.605Z,99278.31
2022-12-23T04:13:41.643Z,99282.78
2022-12-23T04:16:09.598Z,99284.41
2022-12-23T04:18:38.775Z,99278.91
2022-12-23T04:21:07.130Z,99273.06
2022-12-23T04:23:34.776Z,99273.88
2022-12-23T04:26:02.469Z,99277.13
2022-12-23T04:28:30.193Z,99281.22
2022-12-23T04:30:58.104Z,99287.34
2022-12-23T04:33:25.793Z,99278.94
2022-12-23T04:35:54.798Z,99283.06
2022-12-23T04:38:22.528Z,99288.72
2022-12-23T04:40:50.183Z,99285.28
2022-12-23T04:43:18.005Z,99279.78
2022-12-23T04:45:45.743Z,99288.72
2022-12-23T04:48:13.460Z,99286.06
2022-12-23T04:50:41.457Z,99289.94
2022-12-23T04:53:10.765Z,99298.50
2022-12-23T04:55:38.510Z,99286.06
2022-12-23T04:58:06.218Z,99293.00
2022-12-23T05:00:39.174Z,99295.25
2022-12-23T05:03:07.506Z,99294.81
2022-12-23T05:05:35.473Z,99295.44
2022-12-23T05:08:05.132Z,99284.06
2022-12-23T05:10:34.224Z,99298.91
2022-12-23T05:13:01.965Z,99296.28
2022-12-23T05:15:29.694Z,99305.84
2022-12-23T05:17:57.446Z,99305.03
2022-12-23T05:20:25.130Z,99310.13
2022-12-23T05:22:52.808Z,99316.41
2022-12-23T05:25:20.516Z,99322.72
2022-12-23T05:27:49.697Z,99330.47
2022-12-23T05:30:17.494Z,99329.84
2022-12-23T05:32:45.176Z,99335.13
2022-12-23T05:35:12.878Z,99336.13
2022-12-23T05:37:40.518Z,99340.41
2022-12-23T05:40:09.547Z,99342.41
2022-12-23T05:42:37.399Z,99342.25
2022-12-23T05:45:07.559Z,99346.53
2022-12-23T05:47:35.519Z,99335.94
2022-12-23T05:50:03.428Z,99336.56
2022-12-23T05:52:31.227Z,99343.06
2022-12-23T05:54:58.903Z,99342.25
2022-12-23T05:57:26.697Z,99338.41
2022-12-23T05:59:54.365Z,99343.50
2022-12-23T06:02:23.579Z,99337.84
2022-12-23T06:04:51.433Z,99339.47
2022-12-23T06:07:19.107Z,99347.41
2022-12-23T06:09:46.824Z,99350.44
2022-12-23T06:12:14.514Z,99350.06
2022-12-23T06:14:42.247Z,99352.84
2022-12-23T06:17:09.918Z,99361.63
2022-12-23T06:19:39.020Z,99364.09
2022-12-23T06:22:06.942Z,99364.28
2022-12-23T06:24:34.620Z,99367.56
2022-12-23T06:27:02.347Z,99381.78
2022-12-23T06:29:30.260Z,99375.69
2022-12-23T06:31:58.049Z,99385.06
2022-12-23T06:34:25.859Z,99377.97
2022-12-23T06:36:54.911Z,99389.72
2022-12-23T06:39:22.592Z,99385.25
2022-12-23T06:41:50.516Z,99395.84
2022-12-23T06:44:18.282Z,99399.66
2022-12-23T06:46:45.970Z,99400.47
2022-12-23T06:49:14.177Z,99401.47
2022-12-23T06:51:42.081Z,99408.41
2022-12-23T06:54:12.796Z,99406.16
2022-12-23T06:56:40.691Z,99404.34
2022-12-23T06:59:08.581Z,99406.16
2022-12-23T07:01:36.973Z,99415.72
2022-12-23T07:04:05.475Z,99415.09
2022-12-23T07:06:33.252Z,99416.28
2022-12-23T07:09:01.087Z,99415.66
2022-12-23T07:11:30.209Z,99421.16
2022-12-23T07:13:59.468Z,99430.09
2022-12-23T07:16:27.291Z,99434.94
2022-12-23T07:18:55.124Z,99435.75
2022-12-23T07:21:28.954Z,99427.41
2022-12-23T07:23:57.506Z,99427.56
2022-12-23T07:26:25.266Z,99425.31
2022-12-23T07:28:54.531Z,99429.16
2022-12-23T07:31:22.427Z,99431.81
2022-12-23T07:33:50.322Z,99437.28
2022-12-23T07:36:18.103Z,99439.91
2022-12-23T07:38:45.804Z,99442.13
2022-12-23T07:41:13.492Z,99454.31
2022-12-23T07:43:41.162Z,99451.88
2022-12-23T07:46:10.978Z,99452.91
2022-12-23T07:48:40.245Z,99452.25
2022-12-23T07:51:08.207Z,99446.97
2022-12-23T07:53:36.330Z,99440.03
2022-12-23T07:56:04.025Z,99443.50
2022-12-23T07:58:31.730Z,99445.50
2022-12-23T08:01:03.267Z,99451.63
2022-12-23T08:03:32.913Z,99456.91
2022-12-23T08:06:02.414Z,99460.00
2022-12-23T08:08:30.416Z,99469.13
2022-12-23T08:11:00.323Z,99470.75
2022-12-23T08:13:28.659Z,99484.41
2022-12-23T08:15:57.574Z,99489.69
2022-12-23T08:18:26.398Z,99495.81
2022-12-23T08:21:01.116Z,99494.97
2022-12-23T08:23:30.163Z,99486.06
2022-12-23T08:26:02.388Z,99485.50
2022-12-23T08:28:30.483Z,99479.19
2022-12-23T08:31:04.924Z,99483.47
2022-12-23T08:33:32.759Z,99480.00
2022-12-23T08:36:01.963Z,99487.56
2022-12-23T08:38:29.724Z,99485.94
2022-12-23T08:40:57.806Z,99481.47
2022-12-23T08:43:30.224Z,99485.34
2022-12-23T08:46:01.458Z,99482.53
2022-12-23T08:48:29.120Z,99490.47
2022-12-23T08:50:56.974Z,99484.63
2022-12-23T08:53:26.017Z,99495.44
2022-12-23T08:55:53.702Z,99501.97
2022-12-23T08:58:21.446Z,99495.16
2022-12-23T09:00:49.164Z,99491.69
2022-12-23T09:03:16.900Z,99486.69
2022-12-23T09:05:44.654Z,99498.91
2022-12-23T09:08:12.429Z,99498.91
2022-12-23T09:10:43.593Z,99501.94
2022-12-23T09:13:16.289Z,99512.72
2022-12-23T09:15:47.747Z,99509.88
2022-12-23T09:18:15.463Z,99500.75
2022-12-23T09:20:43.172Z,99500.38
2022-12-23T09:23:10.954Z,99504.09
2022-12-23T09:25:38.733Z,99506.53
2022-12-23T09:28:08.610Z,99499.78
2022-12-23T09:30:36.328Z,99507.97
2022-12-23T09:33:04.052Z,99508.03
2022-12-23T09:35:31.727Z,99505.44
2022-12-23T09:37:59.422Z,99507.97
2022-12-23T09:40:30.330Z,99509.19
2022-12-23T09:43:13.125Z,99517.38
2022-12-23T09:45:56.813Z,99524.47
2022-12-23T09:48:27.966Z,99519.22
2022-12-23T09:50:56.642Z,99519.22
2022-12-23T09:53:33.835Z,99520.69
2022-12-23T09:56:08.430Z,99517.22
2022-12-23T09:58:43.725Z,99509.47
2022-12-23T10:01:19.439Z,99495.63
2022-12-23T10:04:10.817Z,99480.34
2022-12-23T10:06:41.089Z,99490.31
2022-12-23T10:09:11.122Z,99484.03
2022-12-23T10:11:43.248Z,99478.50
2022-12-23T10:14:18.114Z,99477.94
2022-12-23T10:16:53.124Z,99478.34
2022-12-23T10:19:25.785Z,99478.34
2022-12-23T10:21:56.955Z,99473.25
2022-12-23T10:24:27.614Z,99468.41
2022-12-23T10:26:57.143Z,99471.03
2022-12-23T10:29:26.529Z,99471.25
2022-12-23T10:32:07.501Z,99467.22
2022-12-23T10:34:45.698Z,99471.28
2022-12-23T10:37:21.400Z,99475.59
2022-12-23T10:40:02.043Z,99472.13
2022-12-23T10:42:37.791Z,99468.50
2022-12-23T10:45:21.473Z,99470.97
2022-12-23T10:48:06.046Z,99459.19
2022-12-23T10:50:50.480Z,99460.81
2022-12-23T10:53:28.535Z,99468.75
2022-12-23T10:55:58.229Z,99464.66
2022-12-23T10:58:27.358Z,99472.41
2022-12-23T11:00:57.078Z,99466.84
2022-12-23T11:03:30.010Z,99467.44
2022-12-23T11:05:59.118Z,99457.03
2022-12-23T11:08:30.255Z,99458.88
2022-12-23T11:11:01.193Z,99449.72
2022-12-23T11:13:36.666Z,99441.00
2022-12-23T11:16:16.277Z,99448.56
2022-12-23T11:18:57.279Z,99441.81
2022-12-23T11:21:25.576Z,99438.34
2022-12-23T11:24:16.268Z,99431.84
2022-12-23T11:26:44.681Z,99431.00
2022-12-23T11:29:17.016Z,99422.44
2022-12-23T11:31:45.330Z,99414.69
2022-12-23T11:34:19.613Z,99406.53
2022-12-23T11:36:56.571Z,99402.88
2022-12-23T11:39:30.121Z,99392.47
2022-12-23T11:42:06.109Z,99389.44
2022-12-23T11:44:36.993Z,99391.47
2022-12-23T11:47:21.304Z,99382.31
2022-12-23T11:49:52.288Z,99381.69
2022-12-23T11:52:21.965Z,99378.03
2022-12-23T11:54:55.526Z,99382.50
2022-12-23T11:57:29.135Z,99382.06
2022-12-23T12:00:00.479Z,99376.00
2022-12-23T12:02:36.260Z,99376.56
2022-12-23T12:05:09.846Z,99359.47
2022-12-23T12:07:37.765Z,99343.75
2022-12-23T12:10:06.947Z,99343.75
2022-12-23T12:12:34.689Z,99334.97
2022-12-23T12:15:02.450Z,99335.78
2022-12-23T12:17:37.382Z,99337.16
2022-12-23T12:20:13.447Z,99327.38
2022-12-23T12:22:46.120Z,99332.03
2022-12-23T12:25:19.620Z,99328.56
2022-12-23T12:27:55.093Z,99330.41
2022-12-23T12:30:23.353Z,99326.34
2022-12-23T12:33:00.801Z,99319.41
2022-12-23T12:35:38.733Z,99324.69
2022-12-23T12:38:14.396Z,99322.06
2022-12-23T12:40:44.483Z,99323.06
2022-12-23T12:43:21.599Z,99312.28
2022-12-23T12:45:53.780Z,99311.28
2022-12-23T12:48:40.251Z,99305.53
2022-12-23T12:51:19.704Z,99313.69
2022-12-23T12:54:04.942Z,99305.72
2022-12-23T12:56:36.307Z,99297.59
2022-12-23T12:59:04.904Z,99303.88
2022-12-23T13:01:46.887Z,99309.16
2022-12-23T13:04:43.687Z,99296.34
2022-12-23T13:07:25.090Z,99294.69
2022-12-23T13:10:00.966Z,99286.50
2022-12-23T13:12:43.344Z,99290.56
2022-12-23T13:15:20.494Z,99284.03
2022-12-23T13:18:03.672Z,99274.88
2022-12-23T13:20:37.393Z,99270.78
2022-12-23T13:23:41.742Z,99265.88
2022-12-23T13:26:10.788Z,99262.63
2022-12-23T13:28:48.771Z,99268.91
2022-12-23T13:31:26.412Z,99266.88
2022-12-23T13:34:04.231Z,99262.78
2022-12-23T13:36:44.207Z,99252.34
2022-12-23T13:39:30.999Z,99257.66
2022-12-23T13:42:05.518Z,99255.22
2022-12-23T13:44:35.824Z,99249.69
2022-12-23T13:47:12.504Z,99246.22
2022-12-23T13:49:54.004Z,99234.00
2022-12-23T13:52:30.292Z,99224.47
2022-12-23T13:55:06.828Z,99225.84
2022-12-23T13:57:47.342Z,99218.28
2022-12-23T14:00:26.959Z,99214.84
2022-12-23T14:03:20.683Z,99213.22
2022-12-23T14:05:50.525Z,99213.41
2022-12-23T14:08:25.686Z,99211.78
2022-12-23T14:10:58.500Z,99206.69
2022-12-23T14:13:31.046Z,99198.94
2022-12-23T14:16:14.834Z,99188.16
2022-12-23T14:19:10.223Z,99190.22
2022-12-23T14:21:48.151Z,99177.38
2022-12-23T14:24:36.778Z,99170.03
2022-12-23T14:27:43.315Z,99174.88
2022-12-23T14:30:16.205Z,99177.91
2022-12-23T14:32:48.703Z,99166.75
2022-12-23T14:35:23.748Z,99164.28
2022-12-23T14:38:23.447Z,99158.19
2022-12-23T14:40:58.566Z,99150.44
2022-12-23T14:43:34.656Z,99151.66
2022-12-23T14:46:04.877Z,99153.69
2022-12-23T14:49:38.202Z,99141.66
2022-12-23T14:52:42.637Z,99133.09
2022-12-23T14:55:40.438Z,99124.59
2022-12-23T14:58:20.536Z,99130.25
2022-12-23T15:00:53.745Z,99131.44
2022-12-23T15:03:21.626Z,99124.56
2022-12-23T15:05:50.946Z,99118.63
2022-12-23T15:08:31.448Z,99107.25
2022-12-23T15:11:00.373Z,99097.69
2022-12-23T15:13:29.671Z,99099.31
2022-12-23T15:16:01.729Z,99099.31
2022-12-23T15:18:29.929Z,99109.06
2022-12-23T15:21:03.231Z,99119.66
2022-12-23T15:23:31.168Z,99118.81
2022-12-23T15:26:00.955Z,99112.72
2022-12-23T15:28:36.925Z,99113.53
2022-12-23T15:31:07.574Z,99102.34
2022-12-23T15:34:02.471Z,99098.88
2022-12-23T15:36:30.695Z,99096.66
2022-12-23T15:39:00.571Z,99086.28
2022-12-23T15:41:28.836Z,99079.34
2022-12-23T15:44:01.906Z,99068.16
2022-12-23T15:46:32.842Z,99071.84
2022-12-23T15:49:00.625Z,99066.56
2022-12-23T15:51:58.335Z,99077.13
2022-12-23T15:54:23.863Z,99077.91
2022-12-23T15:56:54.362Z,99075.50
2022-12-23T15:59:28.575Z,99079.75
2022-12-23T16:01:57.760Z,99083.19
2022-12-23T16:04:28.229Z,99081.19
2022-12-23T16:06:57.304Z,99075.72
2022-12-23T16:09:32.708Z,99080.00
2022-12-23T16:12:02.131Z,99069.59
2022-12-23T16:14:36.302Z,99066.97
2022-12-23T16:17:18.258Z,99061.88
2022-12-23T16:19:47.302Z,99063.09
2022-12-23T16:22:25.482Z,99056.19
2022-12-23T16:24:59.909Z,99051.09
2022-12-23T16:27:35.696Z,99043.34
2022-12-23T16:30:11.464Z,99039.50
2022-12-23T16:32:52.319Z,99041.31
2022-12-23T16:35:34.364Z,99021.19
2022-12-23T16:38:15.473Z,99013.47
2022-12-23T16:40:44.406Z,99006.53
2022-12-23T16:43:12.559Z,99002.91
2022-12-23T16:45:41.215Z,98990.69
2022-12-23T16:48:17.970Z,98996.97
2022-12-23T16:50:46.973Z,98994.34
2022-12-23T16:53:15.559Z,98979.09
2022-12-23T16:55:51.160Z,98965.47
2022-12-23T16:58:20.453Z,98968.09
2022-12-23T17:00:48.453Z,98970.75
2022-12-23T17:03:22.248Z,98967.91
2022-12-23T17:05:50.253Z,98972.38
2022-12-23T17:08:18.138Z,98950.44
2022-12-23T17:10:46.368Z,98962.81
2022-12-23T17:13:17.296Z,98967.72
2022-12-23T17:15:45.448Z,98954.31
2022-12-23T17:18:14.926Z,98950.69
2022-12-23T17:20:45.888Z,98946.41
2022-12-23T17:23:27.186Z,98947.22
2022-12-23T17:25:55.080Z,98956.56
2022-12-23T17:28:23.155Z,98947.63
2022-12-23T17:30:54.962Z,98946.63
2022-12-23T17:33:25.033Z,98944.59
2022-12-23T17:35:55.681Z,98920.22
2022-12-23T17:38:23.686Z,98918.56
2022-12-23T17:40:52.079Z,98921.84
2022-12-23T17:43:19.827Z,98912.09
2022-12-23T17:45:48.176Z,98926.94
2022-12-23T17:48:20.838Z,98942.16
2022-12-23T17:50:50.997Z,98931.41
2022-12-23T17:53:21.119Z,98922.47
2022-12-23T17:55:48.780Z,98926.94
2022-12-23T17:58:16.423Z,98942.97
2022-12-23T18:00:44.186Z,98930.59
2022-12-23T18:03:23.123Z,98929.13
2022-12-23T18:05:55.638Z,98939.13
2022-12-23T18:08:31.049Z,98941.75
2022-12-23T18:10:59.391Z,98952.91
2022-12-23T18:13:27.130Z,98945.41
2022-12-23T18:15:54.862Z,98955.78
2022-12-23T18:18:32.123Z,98952.72
2022-12-23T18:21:01.561Z,98953.34
2022-12-23T18:23:32.874Z,98940.13
2022-12-23T18:26:01.404Z,98949.06
2022-12-23T18:28:29.158Z,98944.41
2022-12-23T18:30:58.002Z,98943.59
2022-12-23T18:33:28.949Z,98944.59
2022-12-23T18:35:57.167Z,98949.88
2022-12-23T18:38:24.918Z,98942.78
2022-12-23T18:40:56.678Z,98941.78
2022-12-23T18:43:26.479Z,98960.25
2022-12-23T18:45:54.535Z,98954.16
2022-12-23T18:48:22.486Z,98951.09
2022-12-23T18:50:50.230Z,98958.22
2022-12-23T18:53:23.716Z,98950.09
2022-12-23T18:55:54.407Z,98948.72
2022-12-23T18:58:23.354Z,98946.47
2022-12-23T19:00:52.545Z,98949.94
2022-12-23T19:03:23.778Z,98960.28
2022-12-23T19:05:52.872Z,98955.22
2022-12-23T19:08:26.156Z,98959.28
2022-12-23T19:10:56.776Z,98964.16
2022-12-23T19:13:24.554Z,98974.34
2022-12-23T19:15:52.815Z,98971.69
2022-12-23T19:18:22.667Z,98977.81
2022-12-23T19:20:50.816Z,98980.25
2022-12-23T19:23:18.595Z,98970.50
2022-12-23T19:25:54.384Z,98979.84
2022-12-23T19:28:24.896Z,98985.94
2022-12-23T19:30:52.858Z,98984.72
2022-12-23T19:33:20.625Z,98988.19
2022-12-23T19:35:48.372Z,98998.13
2022-12-23T19:38:16.089Z,99001.41
2022-12-23T19:40:43.866Z,99006.06
2022-12-23T19:43:11.589Z,99016.44
2022-12-23T19:45:41.049Z,99014.00
2022-12-23T19:48:09.632Z,99014.41
2022-12-23T19:50:37.301Z,99020.53
2022-12-23T19:53:05.017Z,99022.34
2022-12-23T19:55:32.747Z,99030.06
2022-12-23T19:58:00.456Z,99035.34
2022-12-23T20:00:28.141Z,99040.63
2022-12-23T20:02:59.123Z,99020.31
2022-12-23T20:05:27.377Z,99026.22
2022-12-23T20:07:55.096Z,99033.50
2022-12-23T20:10:22.768Z,99043.06
2022-12-23T20:12:50.546Z,99046.53
2022-12-23T20:15:18.376Z,99047.53
2022-12-23T20:17:46.029Z,99050.19
2022-12-23T20:20:16.331Z,99046.34
2022-12-23T20:22:44.007Z,99049.81
2022-12-23T20:25:11.774Z,99040.25
2022-12-23T20:27:39.698Z,99044.53
2022-12-23T20:30:08.879Z,99046.97
2022-12-23T20:32:36.510Z,99050.44
2022-12-23T20:35:04.498Z,99041.47
2022-12-23T20:37:33.500Z,99051.03
2022-12-23T20:40:01.183Z,99047.56
2022-12-23T20:42:28.874Z,99053.47
2022-12-23T20:44:56.613Z,99059.78
2022-12-23T20:47:24.302Z,99065.88
2022-12-23T20:49:51.985Z,99069.34
2022-12-23T20:52:19.739Z,99076.06
2022-12-23T20:54:48.760Z,99076.06
2022-12-23T20:57:16.437Z,99078.50
2022-12-23T20:59:44.283Z,99081.94
2022-12-23T21:02:13.611Z,99091.50
2022-12-23T21:04:41.610Z,99087.03
2022-12-23T21:07:09.637Z,99093.97
2022-12-23T21:09:37.323Z,99100.69
2022-12-23T21:12:06.795Z,99095.59
2022-12-23T21:14:34.729Z,99097.03
2022-12-23T21:17:02.435Z,99107.38
2022-12-23T21:19:30.298Z,99107.38
2022-12-23T21:21:58.234Z,99110.84
2022-12-23T21:24:26.058Z,99113.13
2022-12-23T21:26:56.800Z,99116.75
2022-12-23T21:29:26.722Z,99119.22
2022-12-23T21:31:55.198Z,99116.56
2022-12-23T21:34:23.332Z,99130.19
2022-12-23T21:36:51.070Z,99128.38
2022-12-23T21:39:18.838Z,99120.25
2022-12-23T21:41:49.026Z,99124.53
2022-12-23T21:44:16.772Z,99131.25
2022-12-23T21:46:45.882Z,99138.78
2022-12-23T21:49:14.167Z,99144.88
2022-12-23T21:51:42.310Z,99148.53
2022-12-23T21:54:10.923Z,99157.47
2022-12-23T21:56:39.824Z,99154.44
2022-12-23T21:59:09.656Z,99151.00
2022-12-23T22:01:37.395Z,99156.91
2022-12-23T22:04:07.011Z,99162.00
2022-12-23T22:06:38.858Z,99164.22
2022-12-23T22:09:08.182Z,99170.16
2022-12-23T22:11:37.619Z,99167.13
2022-12-23T22:14:07.737Z,99175.50
2022-12-23T22:16:36.572Z,99176.75
2022-12-23T22:19:06.949Z,99183.25
2022-12-23T22:21:35.630Z,99178.41
2022-12-23T22:24:04.489Z,99191.03
2022-12-23T22:26:33.467Z,99186.56
2022-12-23T22:29:05.442Z,99184.53
2022-12-23T22:31:37.287Z,99191.22
2022-12-23T22:34:07.433Z,99199.59
2022-12-23T22:36:35.479Z,99202.06
2022-12-23T22:39:04.197Z,99203.88
2022-12-23T22:41:32.221Z,99195.72
2022-12-23T22:44:00.510Z,99193.50
2022-12-23T22:46:29.158Z,99207.56
2022-12-23T22:48:58.649Z,99206.34
2022-12-23T22:51:30.274Z,99207.38
2022-12-23T22:53:58.747Z,99200.25
2022-12-23T22:56:27.199Z,99206.94
2022-12-23T22:58:55.210Z,99206.13
2022-12-23T23:01:26.157Z,99199.00
2022-12-23T23:03:57.692Z,99212.25
2022-12-23T23:06:27.808Z,99211.66
2022-12-23T23:08:56.330Z,99221.00
2022-12-23T23:11:25.347Z,99231.19
2022-12-23T23:13:53.568Z,99235.69
2022-12-23T23:16:21.680Z,99233.66
2022-12-23T23:18:49.703Z,99232.63
2022-12-23T23:21:17.746Z,99232.63
2022-12-23T23:23:47.009Z,99241.19
2022-12-23T23:26:15.453Z,99241.81
2022-12-23T23:28:43.883Z,99239.34
2022-12-23T23:34:00.845Z,99249.13
2022-12-23T23:36:28.673Z,99250.31
2022-12-23T23:38:57.848Z,99250.31
2022-12-23T23:41:25.597Z,99247.09
2022-12-23T23:43:53.407Z,99254.59
2022-12-23T23:46:21.164Z,99258.69
2022-12-23T23:48:48.972Z,99267.00
2022-12-23T23:51:16.716Z,99276.56
2022-12-23T23:53:44.384Z,99279.03
2022-12-23T23:56:13.408Z,99286.97
2022-12-23T23:58:41.336Z,99280.03
